Time;durP1;ratioP1;P1;durP2;ratioP2;P2;SDS_P1;SDS_P2;PMS_P1;PMS_P2;Temp;Humidity;BMP_temperature;BMP_pressure;BME280_temperature;BME280_humidity;BME280_pressure;Samples;Min_cycle;Max_cycle;Signal;HPM_P1;HPM_P2
2022/07/25 00:00:34;;;;;;;3.15;1.73;;;24.80;76.50;;;;;;5013217;28;20038;-38
2022/07/25 00:03:00;;;;;;;2.63;1.77;;;24.80;76.90;;;;;;5011842;28;20492;-40
2022/07/25 00:05:26;;;;;;;3.13;2.42;;;24.70;77.50;;;;;;5012858;28;20033;-39
2022/07/25 00:07:51;;;;;;;2.42;2.08;;;24.60;77.80;;;;;;5005795;28;20061;-38
2022/07/25 00:10:17;;;;;;;6.57;2.10;;;24.60;78.10;;;;;;5006638;28;20109;-38
2022/07/25 00:12:43;;;;;;;5.05;2.05;;;24.60;78.30;;;;;;5012610;28;20041;-39
2022/07/25 00:15:09;;;;;;;2.90;2.17;;;24.50;78.60;;;;;;5011105;28;20042;-39
2022/07/25 00:17:35;;;;;;;3.67;2.60;;;24.50;78.90;;;;;;4993753;28;20100;-38
2022/07/25 00:20:02;;;;;;;3.03;2.50;;;24.40;79.20;;;;;;5011993;28;20172;-40
2022/07/25 00:22:28;;;;;;;3.55;2.53;;;24.40;79.60;;;;;;5010437;28;20073;-39
2022/07/25 00:24:53;;;;;;;4.22;2.80;;;24.40;79.60;;;;;;5000384;28;20523;-38
2022/07/25 00:27:19;;;;;;;2.50;2.15;;;24.40;79.60;;;;;;5011271;28;20403;-38
2022/07/25 00:29:44;;;;;;;5.05;2.90;;;24.40;80.00;;;;;;5011090;28;20077;-39
2022/07/25 00:32:10;;;;;;;3.83;2.90;;;24.30;80.20;;;;;;5012488;28;20506;-39
2022/07/25 00:34:36;;;;;;;3.97;2.83;;;24.30;80.40;;;;;;5012647;28;20030;-39
2022/07/25 00:37:01;;;;;;;4.00;2.83;;;24.20;80.40;;;;;;5012459;28;20048;-37
2022/07/25 00:39:27;;;;;;;4.63;3.10;;;24.10;80.80;;;;;;5000567;28;20049;-38
2022/07/25 00:41:53;;;;;;;4.85;2.80;;;24.10;81.20;;;;;;5011185;28;20115;-38
2022/07/25 00:44:26;;;;;;;4.10;2.75;;;24.00;81.60;;;;;;5012502;28;20540;-38
2022/07/25 00:46:53;;;;;;;6.80;3.15;;;24.00;82.50;;;;;;5012022;28;20080;-39
2022/07/25 00:49:19;;;;;;;3.70;2.97;;;24.00;82.10;;;;;;5012432;28;20491;-39
2022/07/25 00:51:45;;;;;;;4.22;3.33;;;23.90;82.30;;;;;;5011636;28;20125;-38
2022/07/25 00:54:10;;;;;;;5.00;3.00;;;23.90;82.60;;;;;;5012222;28;20399;-39
2022/07/25 00:56:37;;;;;;;5.25;2.85;;;23.90;82.80;;;;;;5010306;28;20069;-38
2022/07/25 00:59:02;;;;;;;4.82;3.17;;;23.80;83.00;;;;;;5011607;28;20526;-38
2022/07/25 01:01:28;;;;;;;5.13;3.35;;;23.80;83.30;;;;;;5010543;28;20121;-38
2022/07/25 01:03:54;;;;;;;5.03;3.53;;;23.80;83.60;;;;;;5011291;28;20064;-38
2022/07/25 01:06:20;;;;;;;4.28;3.10;;;23.70;83.80;;;;;;5011534;28;20026;-38
2022/07/25 01:08:46;;;;;;;4.32;3.30;;;23.60;84.10;;;;;;5011603;28;20038;-38
2022/07/25 01:11:12;;;;;;;4.93;3.72;;;23.60;84.40;;;;;;5011804;28;20630;-39
2022/07/25 01:13:38;;;;;;;6.45;3.50;;;23.60;84.70;;;;;;5002135;28;20085;-38
2022/07/25 01:16:04;;;;;;;5.38;3.72;;;23.50;84.80;;;;;;5010245;28;20069;-38
2022/07/25 01:18:30;;;;;;;4.32;3.30;;;23.50;85.20;;;;;;5010378;28;20510;-38
2022/07/25 01:20:56;;;;;;;4.50;3.58;;;23.40;85.50;;;;;;5011468;28;20099;-37
2022/07/25 01:23:21;;;;;;;5.03;3.10;;;23.40;85.60;;;;;;5011443;28;20037;-38
2022/07/25 01:25:47;;;;;;;4.10;3.40;;;23.40;85.70;;;;;;5011529;28;20038;-37
2022/07/25 01:28:12;;;;;;;5.75;4.10;;;23.40;85.90;;;;;;5011228;28;20351;-38
2022/07/25 01:30:38;;;;;;;5.95;3.55;;;23.30;86.00;;;;;;5011144;28;20510;-38
2022/07/25 01:33:04;;;;;;;5.95;4.15;;;23.30;86.10;;;;;;5011223;28;20403;-38
2022/07/25 01:35:29;;;;;;;8.13;3.80;;;23.30;86.20;;;;;;5010504;28;20083;-38
2022/07/25 01:37:55;;;;;;;4.45;3.35;;;23.30;86.20;;;;;;5009248;28;20463;-38
2022/07/25 01:40:21;;;;;;;7.65;4.47;;;23.20;86.20;;;;;;4998775;28;20034;-38
2022/07/25 01:42:47;;;;;;;5.28;4.47;;;23.20;86.30;;;;;;5010600;28;20057;-38
2022/07/25 01:45:12;;;;;;;6.07;4.70;;;23.20;86.60;;;;;;5011187;28;20045;-38
2022/07/25 01:47:39;;;;;;;5.95;4.35;;;23.20;86.70;;;;;;5009886;28;20447;-40
2022/07/25 01:50:05;;;;;;;6.70;4.30;;;23.10;87.10;;;;;;5010839;28;20492;-38
2022/07/25 01:52:31;;;;;;;4.57;3.78;;;23.20;87.10;;;;;;5009067;28;20073;-38
2022/07/25 01:54:57;;;;;;;10.32;4.55;;;23.20;87.30;;;;;;5010702;28;20443;-38
2022/07/25 01:57:23;;;;;;;5.78;4.13;;;23.10;87.30;;;;;;5010375;28;20096;-38
2022/07/25 01:59:48;;;;;;;6.95;4.40;;;23.10;88.00;;;;;;5010868;28;20379;-39
2022/07/25 02:02:14;;;;;;;6.55;4.53;;;23.10;87.70;;;;;;5001224;28;20121;-40
2022/07/25 02:04:40;;;;;;;5.97;4.60;;;23.00;87.80;;;;;;5010150;28;20041;-39
2022/07/25 02:07:05;;;;;;;6.18;4.75;;;23.00;88.00;;;;;;5009482;28;20045;-38
2022/07/25 02:09:32;;;;;;;7.80;5.07;;;23.00;88.30;;;;;;5009884;28;20049;-38
2022/07/25 02:11:58;;;;;;;6.88;4.60;;;23.00;88.20;;;;;;5009474;28;20107;-38
2022/07/25 02:14:23;;;;;;;7.57;4.40;;;23.00;88.10;;;;;;5010382;28;20041;-38
2022/07/25 02:16:49;;;;;;;5.57;4.40;;;23.00;88.10;;;;;;5010187;28;20411;-38
2022/07/25 02:19:15;;;;;;;7.90;4.35;;;22.90;88.70;;;;;;5011250;28;20049;-41
2022/07/25 02:21:41;;;;;;;6.47;4.13;;;22.90;88.80;;;;;;5010300;28;20107;-38
2022/07/25 02:24:06;;;;;;;7.22;5.15;;;22.90;89.00;;;;;;5010444;28;20498;-38
2022/07/25 02:26:32;;;;;;;8.52;4.90;;;22.90;89.00;;;;;;5010283;28;20648;-41
2022/07/25 02:28:58;;;;;;;7.47;4.65;;;22.90;89.00;;;;;;5010333;28;20086;-38
2022/07/25 02:31:24;;;;;;;7.07;4.43;;;22.90;89.10;;;;;;5010516;28;20037;-38
2022/07/25 02:33:49;;;;;;;6.70;5.40;;;22.80;89.50;;;;;;5010416;28;20487;-38
2022/07/25 02:36:15;;;;;;;8.98;4.85;;;22.80;89.50;;;;;;5006360;28;20049;-38
2022/07/25 02:38:41;;;;;;;7.35;5.13;;;22.80;89.90;;;;;;4989134;28;20046;-41
2022/07/25 02:41:07;;;;;;;8.13;5.15;;;22.70;90.00;;;;;;5002537;28;20053;-39
2022/07/25 02:43:33;;;;;;;7.55;6.68;;;22.70;90.20;;;;;;5010109;28;20053;-38
2022/07/25 02:45:59;;;;;;;7.03;5.50;;;22.50;90.80;;;;;;5009751;28;20476;-38
2022/07/25 02:48:24;;;;;;;8.70;5.20;;;22.30;91.30;;;;;;5009300;28;20129;-38
2022/07/25 02:50:50;;;;;;;8.80;5.60;;;22.10;92.10;;;;;;5009466;28;20519;-38
2022/07/25 02:53:16;;;;;;;6.82;5.18;;;21.90;92.80;;;;;;5009946;28;20045;-38
2022/07/25 02:55:41;;;;;;;5.72;4.75;;;21.80;93.30;;;;;;5009461;28;20053;-38
2022/07/25 02:58:07;;;;;;;6.47;4.70;;;21.80;93.40;;;;;;5008533;28;20522;-38
2022/07/25 03:00:33;;;;;;;7.50;5.38;;;21.80;93.60;;;;;;5010014;28;20117;-38
2022/07/25 03:02:58;;;;;;;6.45;5.60;;;21.80;93.80;;;;;;5010039;28;20391;-38
2022/07/25 03:05:24;;;;;;;8.52;5.95;;;21.70;94.10;;;;;;5009882;28;20502;-38
2022/07/25 03:07:53;;;;;;;6.68;4.90;;;21.80;94.10;;;;;;5002717;28;20488;-37
2022/07/25 03:10:19;;;;;;;7.18;5.70;;;21.80;94.10;;;;;;5003971;28;20108;-38
2022/07/25 03:12:45;;;;;;;7.57;5.15;;;21.80;94.20;;;;;;5007273;28;20463;-38
2022/07/25 03:15:12;;;;;;;9.55;5.95;;;21.80;93.90;;;;;;5002754;28;20041;-38
2022/07/25 03:17:38;;;;;;;7.85;6.28;;;21.80;94.30;;;;;;5009353;28;20076;-40
2022/07/25 03:20:08;;;;;;;8.30;6.00;;;21.80;94.00;;;;;;5009815;28;20041;-38
2022/07/25 03:22:34;;;;;;;9.15;6.25;;;21.80;94.30;;;;;;5009582;28;20071;-38
2022/07/25 03:25:00;;;;;;;8.23;6.85;;;21.80;94.10;;;;;;5008119;28;20116;-38
2022/07/25 03:27:26;;;;;;;6.63;5.28;;;21.80;94.00;;;;;;5007279;28;20034;-38
2022/07/25 03:29:53;;;;;;;9.30;6.88;;;21.80;93.90;;;;;;5009121;28;20042;-38
2022/07/25 03:32:19;;;;;;;8.38;7.18;;;21.80;94.10;;;;;;5008776;28;20120;-38
2022/07/25 03:34:45;;;;;;;9.27;7.35;;;21.70;94.40;;;;;;5008953;28;20068;-38
2022/07/25 03:37:11;;;;;;;15.77;6.07;;;21.60;94.50;;;;;;5008960;28;20456;-38
2022/07/25 03:39:36;;;;;;;7.68;6.57;;;21.60;94.60;;;;;;4997558;28;20376;-38
2022/07/25 03:42:02;;;;;;;7.72;6.10;;;21.60;95.00;;;;;;5008952;28;20054;-38
2022/07/25 03:44:28;;;;;;;8.40;6.97;;;21.60;95.20;;;;;;5009569;28;20048;-38
2022/07/25 03:46:54;;;;;;;10.02;7.47;;;21.50;95.40;;;;;;5009327;28;20041;-38
2022/07/25 03:49:19;;;;;;;10.63;8.00;;;21.50;95.40;;;;;;5009514;28;20120;-38
2022/07/25 03:51:45;;;;;;;11.13;7.65;;;21.50;95.30;;;;;;5008589;28;20042;-38
2022/07/25 03:54:14;;;;;;;7.97;6.88;;;21.50;95.30;;;;;;5009639;28;20113;-38
2022/07/25 03:56:46;;;;;;;8.02;6.43;;;21.50;95.20;;;;;;5008401;28;20046;-38
2022/07/25 03:59:14;;;;;;;8.15;6.43;;;21.50;95.40;;;;;;5001794;28;20487;-40
2022/07/25 04:01:41;;;;;;;11.90;8.00;;;21.60;95.40;;;;;;5012487;28;20045;-38
2022/07/25 04:04:08;;;;;;;9.55;7.30;;;21.50;95.30;;;;;;5012892;28;20468;-38
2022/07/25 04:06:34;;;;;;;8.77;6.97;;;21.50;95.20;;;;;;5011608;28;20093;-38
2022/07/25 04:09:00;;;;;;;10.68;7.38;;;21.50;95.20;;;;;;5012727;28;20061;-38
2022/07/25 04:11:28;;;;;;;11.52;7.78;;;21.60;95.30;;;;;;5012518;28;20045;-38
2022/07/25 04:13:54;;;;;;;9.63;7.15;;;21.60;95.20;;;;;;5012461;28;20096;-38
2022/07/25 04:16:19;;;;;;;9.73;6.93;;;21.60;95.10;;;;;;5012774;28;20085;-38
2022/07/25 04:18:45;;;;;;;11.07;7.38;;;21.70;95.00;;;;;;5012592;28;20359;-38
2022/07/25 04:21:11;;;;;;;7.50;6.55;;;21.70;95.00;;;;;;5012059;28;20034;-41
2022/07/25 04:23:37;;;;;;;9.90;7.47;;;21.70;94.90;;;;;;5012719;28;20405;-38
2022/07/25 04:26:03;;;;;;;10.60;8.02;;;21.70;94.50;;;;;;5012248;28;20109;-38
2022/07/25 04:28:29;;;;;;;9.35;8.27;;;21.80;94.40;;;;;;5012669;28;20514;-37
2022/07/25 04:30:55;;;;;;;11.15;8.50;;;21.90;94.30;;;;;;5007309;28;20117;-38
2022/07/25 04:33:21;;;;;;;13.13;9.10;;;21.80;94.10;;;;;;5011267;28;20116;-38
2022/07/25 04:35:47;;;;;;;10.85;9.63;;;21.80;94.00;;;;;;5012119;28;20438;-38
2022/07/25 04:38:13;;;;;;;11.93;9.10;;;21.80;93.80;;;;;;5010593;28;20360;-38
2022/07/25 04:40:39;;;;;;;10.25;8.18;;;21.80;93.80;;;;;;5005226;28;20037;-41
2022/07/25 04:43:04;;;;;;;11.02;8.80;;;21.80;93.80;;;;;;5012130;28;20475;-38
2022/07/25 04:45:31;;;;;;;9.40;8.40;;;21.90;93.80;;;;;;5012299;28;20453;-39
2022/07/25 04:47:57;;;;;;;12.15;9.68;;;21.80;93.70;;;;;;5005864;28;20046;-38
2022/07/25 04:50:23;;;;;;;12.30;9.23;;;21.90;93.70;;;;;;5002945;28;20041;-40
2022/07/25 04:52:48;;;;;;;12.15;9.60;;;21.90;93.70;;;;;;5012077;28;20046;-38
2022/07/25 04:55:14;;;;;;;11.20;8.65;;;21.90;93.80;;;;;;5012123;28;20096;-38
2022/07/25 04:57:40;;;;;;;10.40;8.40;;;21.90;93.80;;;;;;5011581;28;20100;-38
2022/07/25 05:00:07;;;;;;;11.60;9.55;;;22.00;93.80;;;;;;5012195;28;20037;-39
2022/07/25 05:02:33;;;;;;;11.40;8.75;;;22.00;93.80;;;;;;5006504;28;20046;-40
2022/07/25 05:05:00;;;;;;;11.88;9.20;;;22.00;93.80;;;;;;5006634;28;20418;-40
2022/07/25 05:07:26;;;;;;;12.85;9.63;;;22.00;93.80;;;;;;5011393;28;20121;-39
2022/07/25 05:09:51;;;;;;;11.20;8.63;;;22.00;93.90;;;;;;5011354;28;20133;-38
2022/07/25 05:12:17;;;;;;;10.13;7.75;;;22.00;93.90;;;;;;5009114;28;20088;-38
2022/07/25 05:14:43;;;;;;;13.10;9.63;;;22.00;94.00;;;;;;5011559;28;20053;-38
2022/07/25 05:17:09;;;;;;;11.18;8.93;;;22.00;93.90;;;;;;5011544;28;20073;-36
2022/07/25 05:19:35;;;;;;;11.30;8.23;;;22.00;94.10;;;;;;5011091;28;20090;-40
2022/07/25 05:22:01;;;;;;;9.77;7.80;;;22.00;94.00;;;;;;5009630;28;20530;-38
2022/07/25 05:24:26;;;;;;;11.57;9.75;;;22.10;94.00;;;;;;5011434;28;20493;-38
2022/07/25 05:26:52;;;;;;;12.10;9.32;;;22.10;94.00;;;;;;5009522;28;20117;-38
2022/07/25 05:29:18;;;;;;;11.25;9.18;;;22.10;93.90;;;;;;5011478;28;20052;-38
2022/07/25 05:31:44;;;;;;;15.15;8.93;;;22.10;93.90;;;;;;5011036;28;20049;-38
2022/07/25 05:34:10;;;;;;;10.98;9.00;;;22.10;93.90;;;;;;5011423;28;20145;-38
2022/07/25 05:36:35;;;;;;;12.45;9.15;;;22.10;94.00;;;;;;5011007;28;20042;-38
2022/07/25 05:39:04;;;;;;;13.18;9.73;;;22.10;94.00;;;;;;5009232;28;20095;-38
2022/07/25 05:41:30;;;;;;;12.10;8.25;;;22.10;94.10;;;;;;5011077;28;20080;-38
2022/07/25 05:43:56;;;;;;;12.07;8.55;;;22.10;94.10;;;;;;5010999;28;20102;-38
2022/07/25 05:46:21;;;;;;;13.38;9.60;;;22.10;94.20;;;;;;4998945;28;20376;-38
2022/07/25 05:48:47;;;;;;;9.93;7.57;;;22.10;94.30;;;;;;5011117;28;20042;-38
2022/07/25 05:51:12;;;;;;;12.98;8.95;;;22.20;94.30;;;;;;5002904;28;20108;-38
2022/07/25 05:53:38;;;;;;;11.00;9.07;;;22.30;94.30;;;;;;5011133;28;20049;-38
2022/07/25 05:56:04;;;;;;;10.32;8.80;;;22.30;94.40;;;;;;5009534;28;20454;-38
2022/07/25 05:58:30;;;;;;;13.18;8.45;;;22.30;94.50;;;;;;5010299;28;20125;-38
2022/07/25 06:00:56;;;;;;;10.13;8.10;;;22.30;94.60;;;;;;5009876;28;20120;-38
2022/07/25 06:03:22;;;;;;;19.45;9.30;;;22.30;94.80;;;;;;5010052;28;20065;-38
2022/07/25 06:05:48;;;;;;;11.13;8.05;;;22.30;95.20;;;;;;5010836;28;20487;-40
2022/07/25 06:08:14;;;;;;;13.10;9.68;;;22.30;95.30;;;;;;5006116;28;20042;-38
2022/07/25 06:10:41;;;;;;;10.18;8.15;;;22.30;95.30;;;;;;5007536;28;20045;-38
2022/07/25 06:13:07;;;;;;;10.70;8.20;;;22.40;95.70;;;;;;5008757;28;20104;-38
2022/07/25 06:15:32;;;;;;;12.77;8.30;;;22.40;95.80;;;;;;5009899;28;20042;-38
2022/07/25 06:17:58;;;;;;;12.95;8.00;;;22.40;95.80;;;;;;5010516;28;20058;-41
2022/07/25 06:20:24;;;;;;;8.50;6.57;;;22.40;96.20;;;;;;5010519;28;20121;-38
2022/07/25 06:22:49;;;;;;;9.57;7.78;;;22.50;96.10;;;;;;5010183;28;20069;-38
2022/07/25 06:25:15;;;;;;;11.27;8.30;;;22.60;96.10;;;;;;5010485;28;20121;-37
2022/07/25 06:27:41;;;;;;;11.30;8.88;;;22.60;96.30;;;;;;5010162;28;20091;-38
2022/07/25 06:30:08;;;;;;;9.88;7.40;;;22.70;96.80;;;;;;5000569;28;20046;-39
2022/07/25 06:32:34;;;;;;;10.00;7.10;;;22.80;96.90;;;;;;5010253;28;20518;-38
2022/07/25 06:35:00;;;;;;;9.82;7.03;;;23.00;96.90;;;;;;5010753;28;20041;-38
2022/07/25 06:37:25;;;;;;;8.27;6.65;;;23.10;96.40;;;;;;5009978;28;20116;-40
2022/07/25 06:39:51;;;;;;;9.10;6.05;;;23.30;95.10;;;;;;4997268;28;20128;-38
2022/07/25 06:42:17;;;;;;;7.50;5.65;;;23.50;94.40;;;;;;5010134;28;20026;-38
2022/07/25 06:44:43;;;;;;;9.43;6.50;;;23.60;93.90;;;;;;5010304;28;20141;-38
2022/07/25 06:47:11;;;;;;;11.30;6.20;;;23.60;93.50;;;;;;5009468;28;20029;-39
2022/07/25 06:49:38;;;;;;;9.27;7.00;;;23.50;93.60;;;;;;5010199;28;20038;-38
2022/07/25 06:52:05;;;;;;;7.38;6.20;;;23.50;93.80;;;;;;5008596;28;20061;-38
2022/07/25 06:54:30;;;;;;;9.30;7.15;;;23.50;93.90;;;;;;5009495;28;20045;-40
2022/07/25 06:56:56;;;;;;;9.88;7.25;;;23.40;93.70;;;;;;5009638;28;20046;-38
2022/07/25 06:59:22;;;;;;;9.48;6.53;;;23.40;93.70;;;;;;5009739;28;20450;-38
2022/07/25 07:01:47;;;;;;;14.40;7.32;;;23.30;93.90;;;;;;5009602;28;20034;-38
2022/07/25 07:04:13;;;;;;;11.15;7.63;;;23.20;94.40;;;;;;5010073;28;20034;-38
2022/07/25 07:06:39;;;;;;;9.45;7.70;;;23.10;94.70;;;;;;5009462;28;20402;-38
2022/07/25 07:09:05;;;;;;;11.52;8.00;;;23.10;95.00;;;;;;5009670;28;20141;-40
2022/07/25 07:11:30;;;;;;;10.70;7.60;;;23.00;95.40;;;;;;5009669;28;20499;-38
2022/07/25 07:13:56;;;;;;;10.50;7.00;;;23.00;95.70;;;;;;4999624;28;20105;-38
2022/07/25 07:16:22;;;;;;;8.80;7.57;;;23.00;95.80;;;;;;5002859;28;20515;-39
2022/07/25 07:18:47;;;;;;;12.27;7.50;;;23.00;96.00;;;;;;5003215;28;20069;-40
2022/07/25 07:21:13;;;;;;;11.40;7.93;;;23.10;96.30;;;;;;5009247;28;20067;-38
2022/07/25 07:23:39;;;;;;;10.68;7.10;;;23.10;95.90;;;;;;5008621;28;20048;-38
2022/07/25 07:26:04;;;;;;;12.23;7.63;;;23.10;95.80;;;;;;5009078;28;20455;-38
2022/07/25 07:28:30;;;;;;;10.60;7.47;;;23.30;95.70;;;;;;5008831;28;20042;-36
2022/07/25 07:30:56;;;;;;;9.30;6.85;;;23.30;95.20;;;;;;5009492;28;20491;-38
2022/07/25 07:33:21;;;;;;;11.02;7.25;;;23.50;95.00;;;;;;5008693;28;20407;-38
2022/07/25 07:35:47;;;;;;;10.30;7.50;;;23.80;94.70;;;;;;5011206;28;20038;-38
2022/07/25 07:38:13;;;;;;;10.25;6.63;;;24.10;94.20;;;;;;5012098;28;20050;-38
2022/07/25 07:40:39;;;;;;;10.98;5.60;;;24.20;93.30;;;;;;5012560;28;20049;-38
2022/07/25 07:43:05;;;;;;;10.63;5.95;;;24.30;92.70;;;;;;5012580;28;20042;-37
2022/07/25 07:45:31;;;;;;;6.28;5.07;;;24.40;91.90;;;;;;5012888;28;20042;-39
2022/07/25 07:47:57;;;;;;;11.05;6.03;;;24.40;91.80;;;;;;5012123;28;20411;-38
2022/07/25 07:50:26;;;;;;;6.80;4.30;;;24.30;91.20;;;;;;5009265;28;20044;-38
2022/07/25 07:52:54;;;;;;;6.40;4.85;;;24.20;91.70;;;;;;5013287;28;20034;-38
2022/07/25 07:58:06;;;;;;;11.45;4.43;;;24.10;92.50;;;;;;5012656;28;20075;-38
2022/07/25 08:00:35;;;;;;;6.43;4.03;;;24.10;92.70;;;;;;5013289;28;20435;-38
2022/07/25 08:03:02;;;;;;;6.45;4.05;;;24.10;92.50;;;;;;5013247;28;20046;-37
2022/07/25 08:05:33;;;;;;;10.10;3.95;;;24.20;92.50;;;;;;5011927;28;20042;-38
2022/07/25 08:07:59;;;;;;;7.40;3.92;;;24.20;92.70;;;;;;5010858;28;20073;-38
2022/07/25 08:10:30;;;;;;;7.13;3.80;;;24.30;92.30;;;;;;5013009;28;20523;-38
2022/07/25 08:12:57;;;;;;;6.85;4.10;;;24.40;92.60;;;;;;5011054;28;20046;-38
2022/07/25 08:15:23;;;;;;;5.20;3.80;;;24.50;92.20;;;;;;5013268;28;20495;-38
2022/07/25 08:17:50;;;;;;;6.20;3.92;;;24.60;92.20;;;;;;5011435;28;20053;-40
2022/07/25 08:20:17;;;;;;;4.95;3.53;;;24.70;92.20;;;;;;5012877;28;20056;-38
2022/07/25 08:22:45;;;;;;;6.55;3.38;;;24.60;92.20;;;;;;5009414;28;20538;-40
2022/07/25 08:25:19;;;;;;;6.10;2.72;;;24.60;92.50;;;;;;5010152;28;20041;-37
2022/07/25 08:27:45;;;;;;;4.97;2.53;;;24.50;91.50;;;;;;5006822;28;20110;-38
2022/07/25 08:30:11;;;;;;;3.90;2.58;;;24.40;92.00;;;;;;5006478;28;20381;-38
2022/07/25 08:32:59;;;;;;;5.80;2.50;;;24.40;92.10;;;;;;5011573;28;20045;-40
2022/07/25 08:35:26;;;;;;;6.47;2.22;;;24.30;92.30;;;;;;5011582;28;20048;-38
2022/07/25 08:37:53;;;;;;;3.75;1.67;;;24.20;92.50;;;;;;5012049;28;20522;-38
2022/07/25 08:40:20;;;;;;;2.53;1.60;;;24.10;91.30;;;;;;5003320;28;20471;-38
2022/07/25 08:42:47;;;;;;;3.85;1.60;;;24.10;90.50;;;;;;5012225;28;20096;-38
2022/07/25 08:45:18;;;;;;;2.10;1.48;;;24.10;89.90;;;;;;5012450;28;20042;-38
2022/07/25 08:47:45;;;;;;;3.65;1.88;;;24.10;88.80;;;;;;5011134;28;20072;-38
2022/07/25 08:50:13;;;;;;;3.35;1.55;;;24.00;87.90;;;;;;5012476;28;20139;-38
2022/07/25 08:52:42;;;;;;;4.05;1.70;;;24.00;87.70;;;;;;5012094;28;20034;-38
2022/07/25 08:55:13;;;;;;;2.67;1.65;;;24.10;88.20;;;;;;5008392;28;20038;-38
2022/07/25 08:57:42;;;;;;;6.32;1.98;;;24.00;88.70;;;;;;5011703;28;20056;-38
2022/07/25 09:00:10;;;;;;;2.90;1.50;;;24.00;89.40;;;;;;5026002;28;20057;-40
2022/07/25 09:02:37;;;;;;;2.67;1.77;;;24.00;90.10;;;;;;5002148;28;20046;-37
2022/07/25 09:05:03;;;;;;;2.28;1.60;;;24.00;90.20;;;;;;5012256;28;20116;-38
2022/07/25 09:07:39;;;;;;;4.30;1.75;;;24.20;90.60;;;;;;5008442;28;20070;-38
2022/07/25 09:10:15;;;;;;;2.28;1.40;;;24.20;90.10;;;;;;5011916;28;20407;-38
2022/07/25 09:12:50;;;;;;;5.22;2.15;;;24.40;90.20;;;;;;5009426;28;20127;-38
2022/07/25 09:15:23;;;;;;;3.22;1.88;;;24.40;90.30;;;;;;5004683;28;20053;-38
2022/07/25 09:17:50;;;;;;;5.20;1.73;;;24.40;89.70;;;;;;5009850;28;20049;-38
2022/07/25 09:20:15;;;;;;;3.90;1.50;;;24.40;90.40;;;;;;5011850;28;20100;-38
2022/07/25 09:22:44;;;;;;;3.28;1.55;;;24.50;90.30;;;;;;5011229;28;20041;-38
2022/07/25 09:25:29;;;;;;;3.30;1.20;;;24.60;89.40;;;;;;5011651;28;20494;-40
2022/07/25 09:28:08;;;;;;;3.95;1.27;;;24.60;89.40;;;;;;5010997;28;20196;-38
2022/07/25 09:30:34;;;;;;;2.58;1.33;;;24.50;89.00;;;;;;5011528;28;20439;-38
2022/07/25 09:33:00;;;;;;;3.38;0.90;;;24.30;90.20;;;;;;5008520;28;20068;-40
2022/07/25 09:35:34;;;;;;;1.17;0.85;;;24.20;90.80;;;;;;5011420;28;20073;-36
2022/07/25 09:38:14;;;;;;;1.90;0.80;;;24.10;91.00;;;;;;5009689;28;20403;-38
2022/07/25 09:40:51;;;;;;;2.42;1.05;;;24.00;91.20;;;;;;4999179;28;20041;-39
2022/07/25 09:43:17;;;;;;;3.45;0.80;;;24.10;91.70;;;;;;5011047;28;20038;-38
2022/07/25 09:45:50;;;;;;;1.50;0.68;;;24.20;91.90;;;;;;4993463;28;20080;-38
2022/07/25 09:48:19;;;;;;;3.70;0.70;;;24.30;92.60;;;;;;5009396;28;20069;-37
2022/07/25 09:50:45;;;;;;;6.07;0.73;;;24.40;91.70;;;;;;5011157;28;20486;-41
2022/07/25 09:53:11;;;;;;;2.75;0.52;;;24.50;91.60;;;;;;5010915;28;20038;-38
2022/07/25 09:55:37;;;;;;;1.95;0.60;;;24.80;91.60;;;;;;5011026;28;20042;-38
2022/07/25 09:58:03;;;;;;;2.67;0.75;;;25.00;90.80;;;;;;5008755;28;20131;-38
2022/07/25 10:00:31;;;;;;;1.50;0.63;;;25.00;90.20;;;;;;5009757;28;20042;-40
2022/07/25 10:03:08;;;;;;;2.30;0.70;;;25.00;90.30;;;;;;5006344;28;20510;-38
2022/07/25 10:06:00;;;;;;;2.95;0.80;;;24.80;90.80;;;;;;4999387;28;20031;-38
2022/07/25 10:08:27;;;;;;;1.98;0.70;;;24.80;90.60;;;;;;5010870;28;20052;-41
2022/07/25 10:10:52;;;;;;;2.05;0.80;;;24.80;90.70;;;;;;5010363;28;20471;-38
2022/07/25 10:13:29;;;;;;;2.03;0.80;;;24.80;90.60;;;;;;5010492;28;20103;-38
2022/07/25 10:15:55;;;;;;;2.13;0.60;;;24.70;91.10;;;;;;5009624;28;20045;-38
2022/07/25 10:18:23;;;;;;;2.97;0.52;;;24.70;90.90;;;;;;5010530;28;20044;-38
2022/07/25 10:20:53;;;;;;;3.95;1.50;;;24.60;91.00;;;;;;5006927;28;20041;-38
2022/07/25 10:23:27;;;;;;;3.10;0.80;;;24.40;91.30;;;;;;5002189;28;20070;-39
2022/07/25 10:25:59;;;;;;;2.22;0.85;;;24.20;92.60;;;;;;5009648;28;20145;-38
2022/07/25 10:28:36;;;;;;;3.75;0.80;;;23.90;93.60;;;;;;5007485;28;20049;-41
2022/07/25 10:31:01;;;;;;;3.65;0.85;;;23.70;94.90;;;;;;5010157;28;20038;-40
2022/07/25 10:33:27;;;;;;;6.32;1.20;;;23.60;95.90;;;;;;5010370;28;20499;-38
2022/07/25 10:35:52;;;;;;;6.10;1.00;;;23.50;96.40;;;;;;5010175;28;20042;-38
2022/07/25 10:38:27;;;;;;;6.53;1.23;;;23.50;96.90;;;;;;5008516;28;20116;-38
2022/07/25 10:40:53;;;;;;;2.95;1.00;;;23.50;98.30;;;;;;5002298;28;20661;-38
2022/07/25 10:43:24;;;;;;;5.85;1.35;;;23.50;98.10;;;;;;5009104;28;20088;-38
2022/07/25 10:45:57;;;;;;;4.45;1.05;;;23.40;98.30;;;;;;5000259;28;20034;-38
2022/07/25 10:48:26;;;;;;;5.15;1.10;;;23.50;98.40;;;;;;5007160;28;20416;-39
2022/07/25 10:51:01;;;;;;;7.15;1.40;;;23.50;98.50;;;;;;5010149;28;20042;-37
2022/07/25 10:53:47;;;;;;;6.47;1.10;;;23.60;97.50;;;;;;5003768;28;20101;-38
2022/07/25 10:56:14;;;;;;;4.50;1.00;;;23.80;96.80;;;;;;5009849;28;20084;-39
2022/07/25 10:58:43;;;;;;;4.00;1.35;;;24.00;95.10;;;;;;5009851;28;20041;-38
2022/07/25 11:01:10;;;;;;;5.82;1.25;;;24.00;94.60;;;;;;5010144;28;20069;-38
2022/07/25 11:03:35;;;;;;;6.75;1.10;;;24.10;94.10;;;;;;5010204;28;20121;-38
2022/07/25 11:06:01;;;;;;;3.92;1.02;;;24.10;94.10;;;;;;5000212;28;20128;-38
2022/07/25 11:08:34;;;;;;;3.58;1.10;;;24.20;93.70;;;;;;5004429;28;20046;-36
2022/07/25 11:11:01;;;;;;;4.50;1.15;;;24.20;93.40;;;;;;5011539;28;20117;-38
2022/07/25 11:13:26;;;;;;;8.30;1.33;;;24.20;93.90;;;;;;5006143;28;20072;-38
2022/07/25 11:15:56;;;;;;;5.63;1.65;;;24.10;93.80;;;;;;5006563;28;21443;-38
2022/07/25 11:18:37;;;;;;;4.53;1.30;;;24.10;94.20;;;;;;5005051;28;20056;-37
2022/07/25 11:21:05;;;;;;;5.03;1.48;;;24.20;93.30;;;;;;5013701;28;20172;-38
2022/07/25 11:23:32;;;;;;;3.38;1.30;;;24.50;93.20;;;;;;5014008;28;20050;-38
2022/07/25 11:26:09;;;;;;;3.55;1.20;;;24.60;92.50;;;;;;5006231;28;20117;-38
2022/07/25 11:28:37;;;;;;;5.13;1.30;;;24.70;92.50;;;;;;5013801;28;20081;-38
2022/07/25 11:31:06;;;;;;;5.13;1.38;;;24.60;92.30;;;;;;5013631;28;20287;-38
2022/07/25 11:33:32;;;;;;;5.72;1.48;;;24.40;91.60;;;;;;5007163;28;20496;-41
2022/07/25 11:35:58;;;;;;;3.65;1.13;;;24.30;91.80;;;;;;5012523;28;20129;-38
2022/07/25 11:38:25;;;;;;;5.20;1.38;;;24.20;92.10;;;;;;5013181;28;20372;-38
2022/07/25 11:40:51;;;;;;;3.63;1.10;;;24.20;92.70;;;;;;5013028;28;20042;-37
2022/07/25 11:43:21;;;;;;;7.13;1.75;;;24.00;93.20;;;;;;5013672;28;20044;-38
2022/07/25 11:46:01;;;;;;;7.38;1.83;;;23.80;93.00;;;;;;5013321;28;20576;-38
2022/07/25 11:48:38;;;;;;;3.60;0.90;;;23.60;93.20;;;;;;4993463;28;20082;-38
2022/07/25 11:51:15;;;;;;;4.07;0.80;;;23.50;91.00;;;;;;5005002;28;20042;-38
2022/07/25 11:53:50;;;;;;;5.35;0.90;;;23.50;91.90;;;;;;5010216;28;20077;-38
2022/07/25 11:56:18;;;;;;;3.80;0.85;;;23.60;90.30;;;;;;5012525;28;20605;-38
2022/07/25 11:59:00;;;;;;;5.95;1.13;;;23.70;90.10;;;;;;5011849;28;20502;-39
2022/07/25 12:01:37;;;;;;;7.50;1.45;;;23.80;90.10;;;;;;5012364;28;20537;-38
2022/07/25 12:04:16;;;;;;;4.35;1.02;;;23.80;89.50;;;;;;5012431;28;20125;-37
2022/07/25 12:06:47;;;;;;;3.03;1.00;;;23.80;90.30;;;;;;5011807;28;20049;-38
2022/07/25 12:09:18;;;;;;;3.25;0.85;;;23.80;90.50;;;;;;5012899;28;20165;-38
2022/07/25 12:11:44;;;;;;;3.53;1.25;;;24.00;90.30;;;;;;5013016;28;20471;-38
2022/07/25 12:14:12;;;;;;;5.30;1.30;;;24.30;90.10;;;;;;5007421;28;20042;-38
2022/07/25 12:16:38;;;;;;;3.40;1.10;;;24.50;88.90;;;;;;5002014;28;20062;-37
2022/07/25 12:19:08;;;;;;;4.22;1.10;;;24.70;88.40;;;;;;5010015;28;20125;-38
2022/07/25 12:21:35;;;;;;;5.00;1.40;;;25.00;86.80;;;;;;5012068;28;20407;-40
2022/07/25 12:24:00;;;;;;;3.92;1.20;;;25.30;86.00;;;;;;5012713;28;20511;-38
2022/07/25 12:26:26;;;;;;;4.75;1.23;;;25.20;83.10;;;;;;5012686;28;20125;-40
2022/07/25 12:28:52;;;;;;;7.38;1.05;;;25.00;81.90;;;;;;5012650;28;20041;-40
2022/07/25 12:31:17;;;;;;;5.22;1.95;;;24.80;81.50;;;;;;5010809;28;20117;-37
2022/07/25 12:33:43;;;;;;;4.80;1.17;;;24.80;84.10;;;;;;5010366;28;20056;-38
2022/07/25 12:36:11;;;;;;;5.03;0.98;;;24.70;84.30;;;;;;5012213;28;20056;-40
2022/07/25 12:38:37;;;;;;;5.45;1.52;;;24.70;82.70;;;;;;5011958;28;20121;-38
2022/07/25 12:41:03;;;;;;;5.97;1.30;;;24.60;84.00;;;;;;5004721;28;20462;-38
2022/07/25 12:43:28;;;;;;;7.60;1.50;;;24.40;85.30;;;;;;5012418;28;20133;-38
2022/07/25 12:45:54;;;;;;;3.40;1.20;;;24.10;86.40;;;;;;5012278;28;20026;-40
2022/07/25 12:48:20;;;;;;;6.65;1.85;;;23.90;88.20;;;;;;5012572;28;20045;-38